Time;durP1;ratioP1;P1;durP2;ratioP2;P2;SDS_P1;SDS_P2;PMS_P1;PMS_P2;Temp;Humidity;BMP_temperature;BMP_pressure;BME280_temperature;BME280_humidity;BME280_pressure;Samples;Min_cycle;Max_cycle;Signal;HPM_P1;HPM_P2
2020/12/28 00:00:12;;;;;;;3.13;2.20;;;;;;;10.89;45.55;97805.47;4978959;28;129059;-57
2020/12/28 00:02:38;;;;;;;2.92;2.17;;;;;;;10.89;45.46;97794.69;4977467;28;128087;-57
2020/12/28 00:05:09;;;;;;;2.60;2.03;;;;;;;10.93;45.52;97798.28;4980005;28;128429;-57
2020/12/28 00:07:36;;;;;;;2.67;1.95;;;;;;;10.95;45.84;97799.50;4980662;28;97829;-57
2020/12/28 00:10:03;;;;;;;2.58;1.88;;;;;;;10.93;45.99;97799.06;4981264;28;98544;-57
2020/12/28 00:12:30;;;;;;;3.17;2.10;;;;;;;10.98;45.61;97795.38;4978433;28;117976;-57
2020/12/28 00:14:57;;;;;;;3.30;1.98;;;;;;;10.98;46.47;97792.66;4980118;28;98656;-57
2020/12/28 00:17:23;;;;;;;2.65;1.77;;;;;;;10.97;46.19;97788.41;4976019;28;121331;-57
2020/12/28 00:19:49;;;;;;;2.67;1.92;;;;;;;10.99;46.07;97778.06;4977860;28;128066;-57
2020/12/28 00:22:15;;;;;;;2.95;1.77;;;;;;;10.93;45.88;97782.09;4978641;28;127122;-57
2020/12/28 00:24:41;;;;;;;2.28;1.65;;;;;;;10.99;46.35;97772.66;4977791;28;109452;-57
2020/12/28 00:27:07;;;;;;;2.55;1.75;;;;;;;11.03;46.51;97768.97;4956739;28;122623;-58
2020/12/28 00:29:33;;;;;;;2.17;1.50;;;;;;;11.09;47.28;97774.16;4959292;28;98278;-57
2020/12/28 00:31:59;;;;;;;3.05;1.75;;;;;;;11.12;47.32;97760.00;4959818;28;127808;-57
2020/12/28 00:34:25;;;;;;;2.13;1.63;;;;;;;11.14;47.33;97761.25;4958998;28;127538;-57
2020/12/28 00:36:51;;;;;;;2.65;1.65;;;;;;;11.12;46.70;97762.69;4959824;28;122044;-57
2020/12/28 00:39:17;;;;;;;2.38;1.83;;;;;;;11.12;47.00;97750.03;4959510;28;126499;-57
2020/12/28 00:41:43;;;;;;;2.28;1.70;;;;;;;11.11;46.57;97759.22;4957631;28;128254;-57
2020/12/28 00:44:09;;;;;;;1.83;1.40;;;;;;;11.11;46.56;97751.13;4977848;28;128901;-57
2020/12/28 00:46:35;;;;;;;2.28;1.50;;;;;;;11.10;47.03;97738.78;4979583;28;109906;-57
2020/12/28 00:49:01;;;;;;;2.90;1.75;;;;;;;11.10;46.77;97735.28;4979534;28;128615;-57
2020/12/28 00:51:27;;;;;;;2.88;1.90;;;;;;;11.12;47.02;97736.53;4979055;28;126193;-57
2020/12/28 00:53:53;;;;;;;2.03;1.60;;;;;;;11.08;46.98;97730.22;4944494;28;107366;-57
2020/12/28 00:56:19;;;;;;;2.30;1.70;;;;;;;11.11;46.95;97739.56;4978871;28;124300;-57
2020/12/28 00:58:45;;;;;;;2.42;1.60;;;;;;;11.10;46.89;97730.69;4979777;28;102644;-58
2020/12/28 01:01:12;;;;;;;2.47;1.77;;;;;;;11.12;46.71;97717.66;4960594;28;128349;-57
2020/12/28 01:03:38;;;;;;;3.10;1.55;;;;;;;11.16;46.88;97717.75;4965897;28;128047;-57
2020/12/28 01:06:04;;;;;;;2.25;1.90;;;;;;;11.13;47.33;97724.63;4960105;28;122003;-57
2020/12/28 01:08:30;;;;;;;2.13;1.75;;;;;;;11.16;47.53;97721.25;4959619;28;97810;-57
2020/12/28 01:10:56;;;;;;;2.13;1.80;;;;;;;11.16;47.00;97729.34;4958503;28;127980;-57
2020/12/28 01:13:22;;;;;;;2.67;1.60;;;;;;;11.09;46.56;97725.63;4959375;28;123135;-57
2020/12/28 01:15:48;;;;;;;2.13;1.63;;;;;;;11.13;47.22;97729.22;4959896;28;123139;-58
2020/12/28 01:18:14;;;;;;;2.42;1.95;;;;;;;11.15;46.91;97719.66;4960457;28;98447;-57
2020/12/28 01:20:40;;;;;;;2.33;1.88;;;;;;;11.17;47.28;97722.03;4974040;28;129073;-57
2020/12/28 01:23:06;;;;;;;2.95;1.75;;;;;;;11.20;47.30;97743.72;4978814;28;126563;-57
2020/12/28 01:25:33;;;;;;;3.10;2.15;;;;;;;11.14;46.66;97736.19;4978629;28;116292;-57
2020/12/28 01:27:59;;;;;;;2.35;1.92;;;;;;;11.15;46.99;97732.38;4977638;28;104955;-57
2020/12/28 01:30:25;;;;;;;2.75;1.90;;;;;;;11.12;46.23;97727.63;4979825;28;98521;-57
2020/12/28 01:32:51;;;;;;;2.35;1.70;;;;;;;11.17;46.32;97741.69;4978890;28;113507;-57
2020/12/28 01:35:17;;;;;;;2.67;1.70;;;;;;;11.22;47.24;97735.28;4980961;28;101746;-57
2020/12/28 01:37:43;;;;;;;2.83;2.05;;;;;;;11.31;46.88;97714.38;4982291;28;120013;-56
2020/12/28 01:40:09;;;;;;;2.53;1.80;;;;;;;11.32;46.64;97732.16;4980439;28;127894;-57
2020/12/28 01:42:35;;;;;;;2.80;2.08;;;;;;;11.29;46.79;97724.72;4982558;28;100718;-58
2020/12/28 01:45:01;;;;;;;2.50;1.92;;;;;;;11.33;46.33;97714.84;4978266;28;123615;-57
2020/12/28 01:47:28;;;;;;;2.10;1.70;;;;;;;11.35;46.77;97717.19;4982732;28;97753;-57
2020/12/28 01:49:54;;;;;;;2.88;1.65;;;;;;;11.34;46.93;97713.72;4964704;28;98854;-57
2020/12/28 01:52:20;;;;;;;2.55;2.00;;;;;;;11.31;46.81;97711.69;4963053;28;128415;-57
2020/12/28 01:54:47;;;;;;;2.67;2.08;;;;;;;11.31;46.23;97698.97;4964659;28;123392;-57
2020/12/28 01:57:14;;;;;;;2.55;1.98;;;;;;;11.32;46.45;97715.97;4923855;28;99083;-56
2020/12/28 01:59:40;;;;;;;3.20;2.38;;;;;;;11.30;46.74;97708.22;4942781;28;98521;-57
2020/12/28 02:02:07;;;;;;;2.45;2.00;;;;;;;11.32;46.39;97699.78;4923128;28;120340;-57
2020/12/28 02:04:33;;;;;;;2.42;1.95;;;;;;;11.31;46.78;97700.91;4957827;28;108343;-57
2020/12/28 02:06:59;;;;;;;2.72;2.00;;;;;;;11.32;47.11;97702.50;4942697;28;98451;-57
2020/12/28 02:09:25;;;;;;;2.28;1.92;;;;;;;11.29;46.48;97703.16;4940528;28;98938;-57
2020/12/28 02:11:53;;;;;;;2.72;2.25;;;;;;;11.28;46.56;97696.22;4941377;28;126749;-57
2020/12/28 02:14:19;;;;;;;2.92;2.00;;;;;;;11.26;46.54;97699.22;4941182;28;98399;-57
2020/12/28 02:16:45;;;;;;;3.03;2.28;;;;;;;11.27;46.68;97700.78;4923828;28;128017;-57
2020/12/28 02:19:11;;;;;;;2.42;1.90;;;;;;;11.30;47.24;97708.22;4923175;28;127481;-57
2020/12/28 02:21:38;;;;;;;2.85;2.20;;;;;;;11.29;46.69;97705.84;4949515;28;103476;-57
2020/12/28 02:24:04;;;;;;;2.60;2.00;;;;;;;11.29;47.06;97703.94;4962096;28;97801;-57
2020/12/28 02:26:30;;;;;;;2.50;1.88;;;;;;;11.33;47.48;97712.16;4961950;28;98277;-58
2020/12/28 02:28:56;;;;;;;3.08;2.10;;;;;;;11.33;47.29;97711.38;4960942;28;128408;-57
2020/12/28 02:31:22;;;;;;;2.38;1.80;;;;;;;11.37;47.53;97714.97;4960742;28;127835;-57
2020/12/28 02:33:48;;;;;;;2.83;2.00;;;;;;;11.41;47.58;97708.53;4961250;28;121398;-57
2020/12/28 02:36:14;;;;;;;2.38;2.10;;;;;;;11.45;47.85;97695.94;4959455;28;122264;-57
2020/12/28 02:38:40;;;;;;;2.53;2.00;;;;;;;11.45;47.46;97698.66;4961559;28;127435;-57
2020/12/28 02:41:06;;;;;;;2.72;1.92;;;;;;;11.46;47.62;97715.63;4959268;28;98239;-57
2020/12/28 02:43:33;;;;;;;3.00;1.98;;;;;;;11.47;47.83;97711.78;4941268;28;107926;-57
2020/12/28 02:45:59;;;;;;;2.80;2.03;;;;;;;11.45;47.69;97703.25;4940446;28;128602;-57
2020/12/28 02:48:25;;;;;;;3.13;2.33;;;;;;;11.47;47.57;97699.06;4941041;28;98469;-57
2020/12/28 02:50:51;;;;;;;2.75;2.15;;;;;;;11.46;47.58;97675.16;4940887;28;119569;-57
2020/12/28 02:53:18;;;;;;;2.20;1.90;;;;;;;11.49;47.29;97672.56;4949850;28;118321;-57
2020/12/28 02:55:44;;;;;;;2.47;1.95;;;;;;;11.50;47.50;97667.94;4980561;28;127972;-57
2020/12/28 02:58:10;;;;;;;3.05;2.20;;;;;;;11.46;47.34;97664.38;4980571;28;127792;-58
2020/12/28 03:00:36;;;;;;;2.95;2.40;;;;;;;11.45;47.09;97663.59;4980362;28;127587;-57
2020/12/28 03:03:02;;;;;;;3.03;2.10;;;;;;;11.50;47.63;97660.66;4962144;28;98395;-57
2020/12/28 03:05:28;;;;;;;2.53;1.90;;;;;;;11.51;47.99;97666.81;4980492;28;128467;-58
2020/12/28 03:07:54;;;;;;;2.90;2.35;;;;;;;11.54;47.97;97663.44;4980968;28;128165;-57
2020/12/28 03:10:21;;;;;;;2.35;1.85;;;;;;;11.53;47.82;97665.38;4974842;28;106597;-57
2020/12/28 03:12:47;;;;;;;2.33;1.98;;;;;;;11.59;48.00;97657.03;4941655;28;121503;-57
2020/12/28 03:15:13;;;;;;;2.72;2.05;;;;;;;11.59;48.15;97654.31;4960973;28;99720;-57
2020/12/28 03:17:39;;;;;;;2.40;2.00;;;;;;;11.64;47.91;97648.72;4960454;28;128030;-57
2020/12/28 03:20:05;;;;;;;2.38;1.95;;;;;;;11.63;48.51;97653.31;4960588;28;126593;-58
2020/12/28 03:22:31;;;;;;;2.60;2.10;;;;;;;11.63;48.32;97641.72;4942320;28;121044;-57
2020/12/28 03:24:57;;;;;;;2.70;1.92;;;;;;;11.66;48.58;97649.16;4961393;28;98459;-57
2020/12/28 03:27:23;;;;;;;2.60;1.90;;;;;;;11.64;48.63;97644.09;4960454;28;127307;-56
2020/12/28 03:29:49;;;;;;;2.20;1.80;;;;;;;11.65;48.44;97653.75;4954271;28;124987;-57
2020/12/28 03:32:15;;;;;;;2.20;1.77;;;;;;;11.68;48.29;97657.69;4980234;28;120946;-57
2020/12/28 03:34:41;;;;;;;2.40;2.00;;;;;;;11.71;48.61;97647.00;4979970;28;126348;-57
2020/12/28 03:37:07;;;;;;;3.28;1.98;;;;;;;11.75;48.41;97647.06;4980061;28;127819;-57
2020/12/28 03:39:34;;;;;;;2.85;2.20;;;;;;;11.75;48.44;97641.69;4981379;28;98289;-57
2020/12/28 03:42:00;;;;;;;2.33;2.00;;;;;;;11.74;48.73;97645.53;4979450;28;97810;-56
2020/12/28 03:44:26;;;;;;;2.70;1.80;;;;;;;11.76;48.94;97649.44;4980658;28;128032;-57
2020/12/28 03:46:52;;;;;;;2.70;2.00;;;;;;;11.76;48.81;97635.97;4980122;28;127997;-57
2020/12/28 03:49:18;;;;;;;3.00;2.15;;;;;;;11.75;48.09;97642.50;4972213;28;126354;-57
2020/12/28 03:51:44;;;;;;;2.40;1.90;;;;;;;11.75;48.72;97625.50;4961102;28;102013;-57
2020/12/28 03:54:10;;;;;;;2.58;2.10;;;;;;;11.77;48.59;97623.25;4961191;28;98421;-57
2020/12/28 03:56:36;;;;;;;3.10;1.80;;;;;;;11.78;48.32;97630.22;4962068;28;98825;-57
2020/12/28 03:59:02;;;;;;;2.55;2.05;;;;;;;11.74;48.66;97632.81;4958521;28;127443;-57
2020/12/28 04:01:28;;;;;;;2.67;2.17;;;;;;;11.78;48.40;97631.00;4959921;28;122869;-57
2020/12/28 04:03:54;;;;;;;2.53;1.83;;;;;;;11.78;48.59;97622.91;4960049;28;128181;-57
2020/12/28 04:06:20;;;;;;;2.70;2.03;;;;;;;11.80;48.81;97638.75;4953501;28;127606;-57
2020/12/28 04:08:46;;;;;;;2.97;2.20;;;;;;;11.80;48.10;97634.16;4979169;28;123878;-57
2020/12/28 04:11:13;;;;;;;2.30;2.00;;;;;;;11.81;48.60;97634.94;4959764;28;123796;-57
2020/12/28 04:13:39;;;;;;;2.63;1.98;;;;;;;11.84;48.80;97614.59;4961008;28;98333;-57
2020/12/28 04:16:05;;;;;;;2.85;2.10;;;;;;;11.85;48.48;97610.78;4959248;28;128165;-57
2020/12/28 04:18:31;;;;;;;2.70;2.25;;;;;;;11.86;49.17;97609.63;4959687;28;128454;-57
2020/12/28 04:20:57;;;;;;;2.40;2.03;;;;;;;11.83;48.67;97608.44;4960185;28;110260;-57
2020/12/28 04:23:23;;;;;;;3.25;2.20;;;;;;;11.85;48.76;97608.06;4960228;28;99129;-57
2020/12/28 04:25:49;;;;;;;2.28;1.90;;;;;;;11.84;48.90;97601.88;4959257;28;128098;-58
2020/12/28 04:28:15;;;;;;;2.65;2.08;;;;;;;11.85;48.43;97602.66;4959661;28;128279;-57
2020/12/28 04:30:41;;;;;;;2.50;1.90;;;;;;;11.83;48.83;97605.72;4962171;28;98603;-57
2020/12/28 04:33:07;;;;;;;2.75;1.80;;;;;;;11.84;49.08;97601.88;4942586;28;100708;-57
2020/12/28 04:35:33;;;;;;;2.60;2.05;;;;;;;11.85;49.03;97610.78;4960413;28;99023;-57
2020/12/28 04:37:59;;;;;;;2.78;2.08;;;;;;;11.82;48.84;97601.41;4959654;28;126250;-57
2020/12/28 04:40:25;;;;;;;3.20;2.08;;;;;;;11.82;48.45;97606.03;4960763;28;123164;-57
2020/12/28 04:42:53;;;;;;;2.50;1.88;;;;;;;11.79;49.10;97600.19;4980023;27;120789;-57
2020/12/28 04:45:19;;;;;;;2.95;2.05;;;;;;;11.82;48.85;97603.31;4980614;28;98492;-57
2020/12/28 04:47:45;;;;;;;2.45;2.00;;;;;;;11.80;48.69;97593.66;4979119;28;127195;-57
2020/12/28 04:50:11;;;;;;;2.65;1.88;;;;;;;11.83;48.64;97586.00;4979463;28;119194;-57
2020/12/28 04:52:37;;;;;;;2.50;2.10;;;;;;;11.82;48.62;97587.13;4978788;28;127336;-57
2020/12/28 04:55:04;;;;;;;2.72;1.88;;;;;;;11.83;48.49;97581.44;4960697;28;128153;-57
2020/12/28 04:57:30;;;;;;;2.90;2.10;;;;;;;11.81;48.69;97567.47;4959838;28;127848;-57
2020/12/28 04:59:57;;;;;;;2.67;2.00;;;;;;;11.81;48.98;97564.75;4979265;28;122420;-57
2020/12/28 05:02:24;;;;;;;3.40;2.10;;;;;;;11.80;48.86;97566.69;4980207;28;99199;-57
2020/12/28 05:04:50;;;;;;;2.83;2.00;;;;;;;11.83;48.62;97572.50;4979567;28;98305;-57
2020/12/28 05:07:16;;;;;;;2.90;1.90;;;;;;;11.83;49.21;97575.19;4961656;28;98194;-57
2020/12/28 05:09:42;;;;;;;2.65;2.15;;;;;;;11.82;49.01;97577.13;4981181;27;121174;-57
2020/12/28 05:12:09;;;;;;;2.13;1.80;;;;;;;11.83;48.92;97559.84;4982918;28;98080;-57
2020/12/28 05:14:35;;;;;;;2.10;1.80;;;;;;;11.82;49.02;97560.91;4982674;28;99166;-57
2020/12/28 05:17:02;;;;;;;2.53;2.10;;;;;;;11.84;48.62;97557.94;4983005;28;98344;-57
2020/12/28 05:19:28;;;;;;;2.90;2.30;;;;;;;11.83;49.02;97570.66;4982848;28;114770;-57
2020/12/28 05:21:55;;;;;;;2.92;1.90;;;;;;;11.82;49.28;97566.31;4980597;28;98487;-57
2020/12/28 05:24:21;;;;;;;2.20;1.88;;;;;;;11.84;48.92;97564.09;4965336;28;98187;-57
2020/12/28 05:26:47;;;;;;;2.72;2.10;;;;;;;11.81;48.69;97572.84;4982066;28;109210;-57
2020/12/28 05:29:22;;;;;;;2.70;1.98;;;;;;;11.78;49.24;97578.94;4983045;28;97648;-57
2020/12/28 05:31:51;;;;;;;2.60;1.90;;;;;;;11.78;48.83;97573.53;4965039;28;98523;-57
2020/12/28 05:34:23;;;;;;;2.20;1.80;;;;;;;11.78;49.00;97566.22;4981523;28;98258;-57
2020/12/28 05:36:54;;;;;;;2.10;1.73;;;;;;;11.76;48.72;97571.19;4978232;28;110783;-57
2020/12/28 05:39:21;;;;;;;2.38;1.90;;;;;;;11.75;48.98;97569.63;4963063;28;97996;-57
2020/12/28 05:42:07;;;;;;;3.60;2.20;;;;;;;11.75;49.11;97566.13;4962264;28;117741;-57
2020/12/28 05:44:33;;;;;;;2.45;1.70;;;;;;;11.75;49.38;97564.25;4963171;28;98429;-57
2020/12/28 05:47:11;;;;;;;2.33;1.83;;;;;;;11.71;49.68;97560.66;4983284;28;101142;-57
2020/12/28 05:49:38;;;;;;;3.13;1.88;;;;;;;11.74;49.06;97551.84;4982542;28;98045;-57
2020/12/28 05:52:05;;;;;;;2.72;1.77;;;;;;;11.73;49.07;97547.59;4982645;28;98473;-57
2020/12/28 05:54:31;;;;;;;2.67;1.90;;;;;;;11.74;49.22;97543.75;4981379;28;99151;-58
2020/12/28 05:56:58;;;;;;;2.97;2.00;;;;;;;11.74;49.13;97556.47;4977881;28;98883;-57
2020/12/28 05:59:24;;;;;;;2.65;1.95;;;;;;;11.73;49.01;97549.50;4962694;28;97787;-57
2020/12/28 06:01:50;;;;;;;2.90;2.20;;;;;;;11.72;49.17;97540.63;4962382;28;98549;-57
2020/12/28 06:04:17;;;;;;;2.67;2.00;;;;;;;11.69;48.99;97537.84;4944225;28;98383;-57
2020/12/28 06:06:44;;;;;;;2.22;1.85;;;;;;;11.66;49.29;97543.91;4961575;28;98271;-58
2020/12/28 06:09:10;;;;;;;2.50;2.00;;;;;;;11.66;48.97;97542.00;4963177;28;97997;-57
2020/12/28 06:11:37;;;;;;;3.08;2.03;;;;;;;11.65;48.84;97539.66;4965369;28;101124;-57
2020/12/28 06:14:36;;;;;;;2.83;1.95;;;;;;;11.58;49.45;97540.25;4963162;28;98559;-59
2020/12/28 06:17:09;;;;;;;2.40;1.92;;;;;;;11.60;49.09;97543.38;4952658;28;98359;-57
2020/12/28 06:19:36;;;;;;;2.88;1.88;;;;;;;11.60;48.94;97535.28;4982945;28;102864;-57
2020/12/28 06:22:02;;;;;;;3.00;2.17;;;;;;;11.62;49.22;97538.41;4981959;27;99018;-57
2020/12/28 06:24:31;;;;;;;2.78;2.17;;;;;;;11.62;48.83;97543.81;4981361;28;98465;-57
2020/12/28 06:27:08;;;;;;;2.58;1.92;;;;;;;11.59;48.77;97527.53;4963720;28;98680;-57
2020/12/28 06:29:36;;;;;;;2.60;1.70;;;;;;;11.61;49.13;97526.06;4979845;28;112182;-57
2020/12/28 06:32:13;;;;;;;3.03;1.85;;;;;;;11.58;49.20;97502.47;4960667;28;98462;-57
2020/12/28 06:34:40;;;;;;;2.95;2.35;;;;;;;11.59;49.00;97498.63;4961728;28;98673;-57
2020/12/28 06:37:06;;;;;;;3.05;2.40;;;;;;;11.59;49.43;97492.47;4975620;28;120274;-57
2020/12/28 06:39:32;;;;;;;3.60;3.00;;;;;;;11.59;49.35;97495.94;4980101;28;97663;-57
2020/12/28 06:42:12;;;;;;;5.18;3.60;;;;;;;11.53;49.04;97494.63;4979081;28;98481;-57
2020/12/28 06:44:39;;;;;;;6.43;4.65;;;;;;;11.54;48.85;97490.81;4961143;28;99858;-57
2020/12/28 06:47:24;;;;;;;4.57;3.50;;;;;;;11.47;49.27;97496.78;4980100;28;98287;-58
2020/12/28 06:49:51;;;;;;;6.93;4.25;;;;;;;11.51;48.74;97499.56;4979950;28;97834;-57
2020/12/28 06:52:18;;;;;;;5.70;4.43;;;;;;;11.51;48.57;97500.38;4950102;28;98209;-57
2020/12/28 06:54:44;;;;;;;8.35;4.97;;;;;;;11.50;49.23;97498.78;4957612;28;127446;-58
2020/12/28 06:57:10;;;;;;;7.50;5.18;;;;;;;11.49;48.65;97499.16;4956417;28;118992;-57
2020/12/28 06:59:38;;;;;;;7.20;5.13;;;;;;;11.51;49.20;97500.38;4940336;28;97887;-57
2020/12/28 07:02:06;;;;;;;6.93;4.78;;;;;;;11.50;49.45;97498.78;4946736;28;115065;-57
2020/12/28 07:04:34;;;;;;;5.20;3.97;;;;;;;11.51;49.56;97500.38;4966805;28;98905;-57
2020/12/28 07:07:07;;;;;;;5.80;4.10;;;;;;;11.48;49.02;97495.69;4959052;28;97830;-57
2020/12/28 07:09:34;;;;;;;5.55;4.30;;;;;;;11.52;49.12;97507.34;4959394;28;102592;-57
2020/12/28 07:12:08;;;;;;;5.60;4.22;;;;;;;11.48;48.87;97508.38;4958651;28;116004;-57
2020/12/28 07:14:34;;;;;;;6.15;4.30;;;;;;;11.50;48.99;97523.06;4959352;28;99351;-57
2020/12/28 07:17:00;;;;;;;5.40;3.88;;;;;;;11.53;48.98;97527.00;4958706;28;97775;-57
2020/12/28 07:19:26;;;;;;;4.30;3.67;;;;;;;11.52;48.32;97533.53;4958459;28;107913;-57
2020/12/28 07:21:53;;;;;;;4.50;3.53;;;;;;;11.52;48.74;97528.91;4958013;28;128173;-57
2020/12/28 07:24:20;;;;;;;4.20;3.53;;;;;;;11.52;48.66;97526.22;4939551;28;128701;-58
2020/12/28 07:26:47;;;;;;;4.88;4.10;;;;;;;11.55;49.11;97533.63;4973363;28;98108;-57
2020/12/28 07:29:17;;;;;;;7.30;5.18;;;;;;;11.54;48.58;97540.13;4961000;28;97613;-57
2020/12/28 07:31:43;;;;;;;6.57;5.10;;;;;;;11.57;48.66;97548.69;4977200;27;98554;-57
2020/12/28 07:34:17;;;;;;;6.30;5.22;;;;;;;11.57;48.71;97546.00;4976357;28;98726;-57
2020/12/28 07:36:45;;;;;;;5.45;4.57;;;;;;;11.59;48.89;97547.19;4979415;28;98115;-56
2020/12/28 07:39:12;;;;;;;6.93;4.32;;;;;;;11.61;49.04;97549.56;4959415;28;97982;-57
2020/12/28 07:41:38;;;;;;;5.78;4.22;;;;;;;11.61;48.64;97553.03;4978607;28;99448;-57
2020/12/28 07:44:04;;;;;;;5.03;4.00;;;;;;;11.62;49.17;97559.22;4962081;28;97903;-57
2020/12/28 07:46:35;;;;;;;4.65;3.40;;;;;;;11.62;48.59;97561.91;4968584;28;121829;-57
2020/12/28 07:49:23;;;;;;;4.78;3.70;;;;;;;11.63;48.54;97561.59;4978762;27;98093;-57
2020/12/28 07:52:14;;;;;;;3.70;3.15;;;;;;;11.66;48.43;97562.81;4958938;28;99420;-58
2020/12/28 07:55:20;;;;;;;3.97;3.03;;;;;;;11.64;48.17;97562.38;5018851;27;97649;-57
2020/12/28 07:58:14;;;;;;;2.83;2.53;;;;;;;11.64;48.64;97565.84;4957075;28;97875;-57
2020/12/28 08:00:44;;;;;;;3.15;2.42;;;;;;;11.67;48.40;97565.19;4965010;28;98107;-57
2020/12/28 08:03:26;;;;;;;2.83;2.35;;;;;;;11.71;48.62;97551.75;4957811;28;111467;-57
2020/12/28 08:05:53;;;;;;;2.87;2.23;;;;;;;11.75;48.32;97561.53;4962796;28;110672;-57
2020/12/28 08:08:24;;;;;;;3.30;2.40;;;;;;;11.76;48.02;97559.63;4955643;28;97925;-57
2020/12/28 08:11:09;;;;;;;2.60;2.20;;;;;;;11.78;47.81;97562.75;4956569;28;98514;-57
2020/12/28 08:13:36;;;;;;;3.45;2.28;;;;;;;11.77;47.63;97575.47;4956411;28;98471;-57
2020/12/28 08:16:13;;;;;;;3.15;2.20;;;;;;;11.74;47.27;97559.94;4956339;28;98570;-56
2020/12/28 08:18:51;;;;;;;2.83;2.10;;;;;;;11.76;47.55;97565.03;4955066;28;98046;-56
2020/12/28 08:21:17;;;;;;;2.20;1.85;;;;;;;11.80;47.48;97574.00;4972040;28;99119;-57
2020/12/28 08:23:56;;;;;;;2.90;1.83;;;;;;;11.84;47.78;97561.41;4957971;28;113423;-57
2020/12/28 08:26:27;;;;;;;1.90;1.63;;;;;;;11.88;48.66;97566.91;4948994;28;98073;-57
2020/12/28 08:28:55;;;;;;;2.65;1.95;;;;;;;11.95;48.60;97564.41;4957104;28;97864;-57
2020/12/28 08:31:26;;;;;;;2.10;1.70;;;;;;;11.95;48.91;97564.41;4955172;28;117576;-57
2020/12/28 08:34:30;;;;;;;1.80;1.60;;;;;;;11.98;48.88;97577.97;4956375;28;99000;-57
2020/12/28 08:36:56;;;;;;;2.88;1.70;;;;;;;12.04;49.26;97583.91;4894123;28;98766;-57
2020/12/28 08:39:27;;;;;;;2.17;1.77;;;;;;;12.10;49.48;97565.53;4936406;28;98209;-57
2020/12/28 08:41:58;;;;;;;2.45;1.70;;;;;;;12.11;49.16;97562.50;4953279;28;99048;-58
2020/12/28 08:44:34;;;;;;;2.10;1.80;;;;;;;12.13;48.83;97565.63;4976281;28;98036;-57
2020/12/28 08:47:04;;;;;;;3.10;1.70;;;;;;;12.23;49.39;97562.41;4975858;28;100386;-57
2020/12/28 08:49:32;;;;;;;2.42;1.70;;;;;;;12.27;48.86;97570.59;4976849;28;99532;-57
2020/12/28 08:52:14;;;;;;;2.00;1.60;;;;;;;12.27;49.33;97565.22;4976419;28;99255;-57
2020/12/28 08:54:40;;;;;;;3.10;2.67;;;;;;;12.37;49.17;97570.06;4975659;28;99077;-57
2020/12/28 08:57:16;;;;;;;3.33;2.50;;;;;;;12.40;48.91;97550.47;4975719;28;105677;-57
2020/12/28 08:59:42;;;;;;;3.45;2.58;;;;;;;12.44;49.80;97558.66;4976411;28;99982;-57
2020/12/28 09:02:18;;;;;;;2.90;2.40;;;;;;;12.49;50.07;97550.28;4976571;28;98327;-57
2020/12/28 09:04:44;;;;;;;3.13;2.10;;;;;;;12.59;50.20;97547.06;4951918;28;98614;-57
2020/12/28 09:07:10;;;;;;;3.97;2.35;;;;;;;12.62;50.30;97553.69;4961662;28;119893;-57
2020/12/28 09:09:42;;;;;;;2.70;2.00;;;;;;;12.70;50.36;97558.13;4962987;28;98165;-57
2020/12/28 09:12:09;;;;;;;2.70;2.07;;;;;;;12.78;50.53;97559.88;4944860;28;100258;-57
2020/12/28 09:14:35;;;;;;;2.85;2.20;;;;;;;12.86;50.98;97558.88;4961408;28;117148;-57
2020/12/28 09:17:01;;;;;;;2.75;2.25;;;;;;;12.92;50.53;97559.38;4961150;28;127649;-57
2020/12/28 09:19:27;;;;;;;2.85;2.30;;;;;;;12.98;50.65;97553.38;4962628;28;97782;-57
2020/12/28 09:21:53;;;;;;;2.90;2.30;;;;;;;13.08;50.36;97552.00;4962261;28;98734;-57
2020/12/28 09:24:19;;;;;;;2.55;2.20;;;;;;;13.17;50.73;97547.22;4944391;28;99402;-57
2020/12/28 09:26:45;;;;;;;2.72;2.10;;;;;;;13.27;50.84;97541.25;4941771;28;127528;-56
2020/12/28 09:29:11;;;;;;;2.35;2.00;;;;;;;13.37;50.75;97539.91;4947011;28;97919;-57
2020/12/28 09:31:37;;;;;;;2.85;2.08;;;;;;;13.43;50.84;97530.38;4941288;28;128401;-57
2020/12/28 09:34:03;;;;;;;2.63;2.10;;;;;;;13.55;50.62;97528.66;4942662;28;113193;-57
2020/12/28 09:36:29;;;;;;;2.53;2.08;;;;;;;13.59;50.22;97524.09;4941890;28;99134;-57
2020/12/28 09:38:55;;;;;;;2.53;2.30;;;;;;;13.68;50.67;97524.66;4942863;28;111095;-57
2020/12/28 09:41:21;;;;;;;2.53;2.30;;;;;;;13.77;50.76;97532.56;4954700;28;127904;-57
2020/12/28 09:43:47;;;;;;;2.40;2.20;;;;;;;13.82;51.02;97529.56;4959718;28;124504;-57
2020/12/28 09:46:19;;;;;;;2.85;2.53;;;;;;;13.86;51.19;97525.75;4960389;28;126587;-57
2020/12/28 09:48:46;;;;;;;2.63;2.33;;;;;;;13.90;51.03;97533.94;4942558;28;97876;-57
2020/12/28 09:51:12;;;;;;;3.28;2.55;;;;;;;13.93;50.84;97528.59;4942579;28;98024;-57
2020/12/28 09:53:39;;;;;;;3.20;2.90;;;;;;;13.92;50.91;97532.47;4948354;28;108897;-57
2020/12/28 09:56:06;;;;;;;3.67;3.05;;;;;;;14.01;51.10;97526.81;4953811;28;98484;-57
2020/12/28 09:58:32;;;;;;;3.28;2.97;;;;;;;14.03;50.18;97516.41;4962047;28;98129;-57
2020/12/28 10:01:00;;;;;;;3.22;2.90;;;;;;;14.07;50.68;97511.84;4961257;28;99076;-57
2020/12/28 10:03:27;;;;;;;3.65;3.00;;;;;;;14.14;50.39;97511.16;4961582;28;98967;-57
2020/12/28 10:05:53;;;;;;;3.25;2.85;;;;;;;14.21;50.64;97513.97;4960633;28;98135;-57
2020/12/28 10:08:20;;;;;;;3.20;2.78;;;;;;;14.20;50.04;97512.44;4962253;28;110395;-57
2020/12/28 10:10:46;;;;;;;3.17;2.85;;;;;;;14.24;50.99;97507.84;4933540;28;119397;-57
2020/12/28 10:13:12;;;;;;;2.88;2.60;;;;;;;14.28;51.11;97516.81;4957490;28;98559;-57
2020/12/28 10:15:39;;;;;;;3.30;2.70;;;;;;;14.30;50.72;97528.06;4943577;28;116536;-57
2020/12/28 10:18:23;;;;;;;3.05;2.75;;;;;;;14.31;51.19;97528.88;4919191;28;105251;-57
2020/12/28 10:20:50;;;;;;;2.70;2.50;;;;;;;14.36;51.82;97531.25;4937005;28;98504;-58
2020/12/28 10:23:16;;;;;;;3.30;3.00;;;;;;;14.34;51.38;97531.59;4950774;28;127374;-57
2020/12/28 10:25:43;;;;;;;4.70;4.20;;;;;;;14.36;51.92;97531.25;4939949;28;127773;-57
2020/12/28 10:28:09;;;;;;;5.45;4.45;;;;;;;14.38;52.26;97526.25;4941106;28;103372;-57
2020/12/28 10:30:35;;;;;;;5.40;4.28;;;;;;;14.40;52.17;97527.47;4939915;28;128551;-56
2020/12/28 10:33:01;;;;;;;4.65;4.03;;;;;;;14.46;51.84;97530.63;4941324;28;98243;-57
2020/12/28 10:35:27;;;;;;;4.32;3.60;;;;;;;14.51;52.45;97527.66;4939503;28;128432;-57
2020/12/28 10:37:55;;;;;;;5.20;4.18;;;;;;;14.55;52.24;97533.16;4940758;28;111466;-57
2020/12/28 10:40:21;;;;;;;4.85;3.75;;;;;;;14.61;51.23;97518.91;4931113;28;100954;-57
2020/12/28 10:42:47;;;;;;;4.60;3.83;;;;;;;14.61;51.50;97527.03;4959835;28;128409;-57
2020/12/28 10:45:13;;;;;;;4.00;3.60;;;;;;;14.66;51.85;97526.75;4959969;28;128259;-57
2020/12/28 10:47:40;;;;;;;4.10;3.70;;;;;;;14.75;51.47;97531.13;4960013;28;108758;-57
2020/12/28 10:50:06;;;;;;;3.60;3.17;;;;;;;14.75;51.64;97525.69;4940887;28;128072;-56
2020/12/28 10:52:32;;;;;;;4.15;3.40;;;;;;;14.63;51.48;97519.34;4942258;28;98040;-57
2020/12/28 10:54:58;;;;;;;4.40;3.40;;;;;;;14.58;52.63;97514.22;4959266;28;128078;-57
2020/12/28 10:57:24;;;;;;;3.55;3.17;;;;;;;14.52;52.73;97506.75;4960037;28;110817;-57
2020/12/28 10:59:50;;;;;;;4.10;3.28;;;;;;;14.45;53.37;97504.69;4960423;28;115895;-57
2020/12/28 11:02:16;;;;;;;4.85;3.67;;;;;;;14.40;53.44;97503.06;4959458;28;127740;-57
2020/12/28 11:04:43;;;;;;;4.18;3.33;;;;;;;14.30;53.30;97506.38;4957150;28;127917;-57
2020/12/28 11:07:09;;;;;;;3.67;3.08;;;;;;;14.27;53.48;97514.47;4941275;28;97947;-57
2020/12/28 11:09:36;;;;;;;3.55;3.20;;;;;;;14.23;52.68;97519.84;4960394;28;117726;-57
2020/12/28 11:12:02;;;;;;;4.05;3.00;;;;;;;14.20;52.44;97518.63;4958982;28;122366;-57
2020/12/28 11:14:28;;;;;;;3.22;2.92;;;;;;;14.23;51.73;97514.41;4958970;28;126997;-57
2020/12/28 11:16:54;;;;;;;3.58;3.10;;;;;;;14.26;51.63;97505.53;4960123;28;110853;-57
2020/12/28 11:19:20;;;;;;;3.50;3.17;;;;;;;14.27;52.36;97517.97;4959480;28;128121;-57
2020/12/28 11:21:46;;;;;;;4.38;3.03;;;;;;;14.28;51.97;97524.16;4953827;28;127367;-57
2020/12/28 11:24:12;;;;;;;3.20;2.90;;;;;;;14.33;52.21;97524.63;4938377;28;127740;-57
2020/12/28 11:26:38;;;;;;;3.60;2.88;;;;;;;14.35;52.50;97519.66;4946916;28;111292;-57
2020/12/28 11:29:05;;;;;;;3.92;3.35;;;;;;;14.35;52.79;97519.66;4953819;28;128280;-57
2020/12/28 11:31:31;;;;;;;3.20;2.88;;;;;;;14.36;53.16;97521.19;4934481;28;98823;-56